createdAt,value
2023-10-24T00:00:47.404Z,8.57
2023-10-24T00:03:15.709Z,8.58
2023-10-24T00:05:45.426Z,8.58
2023-10-24T00:08:13.665Z,8.61
2023-10-24T00:10:41.982Z,8.39
2023-10-24T00:13:10.243Z,8.48
2023-10-24T00:15:38.480Z,8.63
2023-10-24T00:18:06.781Z,8.47
2023-10-24T00:20:35.154Z,8.52
2023-10-24T00:23:04.698Z,8.49
2023-10-24T00:25:33.252Z,8.55
2023-10-24T00:28:01.716Z,8.50
2023-10-24T00:30:30.032Z,8.48
2023-10-24T00:32:58.288Z,8.41
2023-10-24T00:35:26.513Z,8.58
2023-10-24T00:37:54.767Z,8.60
2023-10-24T00:40:24.388Z,8.59
2023-10-24T00:42:52.926Z,8.62
2023-10-24T00:45:21.116Z,8.55
2023-10-24T00:47:49.902Z,8.70
2023-10-24T00:50:18.649Z,8.82
2023-10-24T00:52:47.045Z,8.85
2023-10-24T00:55:17.852Z,8.75
2023-10-24T00:57:49.282Z,8.69
2023-10-24T01:00:18.856Z,8.81
2023-10-24T01:02:47.722Z,8.72
2023-10-24T01:05:17.021Z,8.60
2023-10-24T01:07:47.015Z,8.68
2023-10-24T01:10:15.362Z,8.68
2023-10-24T01:12:43.725Z,8.68
2023-10-24T01:15:13.544Z,8.78
2023-10-24T01:17:52.238Z,8.74
2023-10-24T01:20:20.767Z,8.72
2023-10-24T01:22:50.355Z,8.58
2023-10-24T01:25:19.820Z,8.73
2023-10-24T01:27:55.282Z,8.75
2023-10-24T01:30:24.046Z,8.66
2023-10-24T01:32:52.407Z,8.68
2023-10-24T01:35:20.909Z,8.43
2023-10-24T01:37:50.467Z,8.57
2023-10-24T01:40:19.010Z,8.39
2023-10-24T01:42:47.255Z,8.42
2023-10-24T01:45:16.794Z,8.35
2023-10-24T01:47:45.326Z,8.39
2023-10-24T01:50:14.267Z,8.30
2023-10-24T01:52:42.575Z,8.36
2023-10-24T01:55:12.315Z,8.39
2023-10-24T01:57:40.550Z,8.50
2023-10-24T02:00:10.020Z,8.49
2023-10-24T02:02:40.965Z,8.40
2023-10-24T02:05:11.114Z,8.42
2023-10-24T02:07:39.388Z,8.48
2023-10-24T02:10:08.912Z,8.35
2023-10-24T02:12:38.460Z,8.37
2023-10-24T02:15:07.281Z,8.48
2023-10-24T02:17:35.743Z,8.43
2023-10-24T02:20:05.381Z,8.34
2023-10-24T02:22:34.075Z,8.31
2023-10-24T02:25:02.697Z,8.39
2023-10-24T02:27:30.966Z,8.36
2023-10-24T02:30:00.669Z,8.32
2023-10-24T02:32:29.291Z,8.28
2023-10-24T02:34:57.656Z,8.22
2023-10-24T02:37:26.048Z,8.17
2023-10-24T02:39:54.252Z,8.11
2023-10-24T02:42:22.572Z,8.11
2023-10-24T02:44:51.264Z,8.16
2023-10-24T02:47:20.927Z,8.16
2023-10-24T02:49:49.247Z,8.28
2023-10-24T02:52:18.399Z,8.36
2023-10-24T02:54:46.625Z,8.42
2023-10-24T02:57:14.859Z,8.49
2023-10-24T02:59:43.053Z,8.55
2023-10-24T03:02:11.345Z,8.63
2023-10-24T03:04:41.211Z,8.58
2023-10-24T03:07:09.750Z,8.73
2023-10-24T03:09:37.970Z,8.74
2023-10-24T03:12:10.782Z,8.59
2023-10-24T03:14:39.266Z,8.46
2023-10-24T03:17:07.839Z,8.59
2023-10-24T03:19:36.252Z,8.71
2023-10-24T03:22:05.930Z,8.60
2023-10-24T03:24:34.128Z,8.60
2023-10-24T03:27:02.367Z,8.62
2023-10-24T03:29:30.594Z,8.57
2023-10-24T03:31:59.019Z,8.52
2023-10-24T03:34:27.950Z,8.48
2023-10-24T03:36:56.183Z,8.48
2023-10-24T03:39:26.340Z,8.50
2023-10-24T03:41:54.578Z,8.64
2023-10-24T03:44:23.558Z,8.67
2023-10-24T03:46:51.927Z,8.70
2023-10-24T03:49:20.355Z,8.68
2023-10-24T03:51:48.865Z,8.55
2023-10-24T03:54:17.154Z,8.50
2023-10-24T03:56:46.719Z,8.48
2023-10-24T03:59:14.930Z,8.40
2023-10-24T04:01:43.194Z,8.48
2023-10-24T04:04:11.434Z,8.47
2023-10-24T04:06:39.985Z,8.48
2023-10-24T04:09:08.256Z,8.59
2023-10-24T04:11:36.573Z,8.62
2023-10-24T04:14:06.214Z,8.65
2023-10-24T04:16:34.680Z,8.69
2023-10-24T04:19:03.417Z,8.77
2023-10-24T04:21:31.555Z,8.84
2023-10-24T04:24:00.107Z,8.71
2023-10-24T04:26:28.349Z,8.74
2023-10-24T04:28:56.984Z,8.75
2023-10-24T04:31:26.644Z,8.67
2023-10-24T04:33:55.090Z,8.71
2023-10-24T04:36:23.404Z,8.80
2023-10-24T04:38:51.597Z,8.93
2023-10-24T04:41:19.789Z,8.85
2023-10-24T04:43:48.014Z,8.93
2023-10-24T04:46:16.295Z,8.81
2023-10-24T04:48:45.877Z,8.70
2023-10-24T04:51:14.132Z,8.71
2023-10-24T04:53:42.338Z,8.75
2023-10-24T04:56:10.544Z,8.70
2023-10-24T04:58:38.827Z,8.74
2023-10-24T05:01:07.101Z,8.71
2023-10-24T05:03:35.669Z,8.69
2023-10-24T05:06:05.541Z,8.62
2023-10-24T05:08:33.734Z,8.64
2023-10-24T05:11:01.977Z,8.67
2023-10-24T05:13:30.300Z,8.79
2023-10-24T05:15:58.999Z,8.80
2023-10-24T05:18:27.299Z,8.81
2023-10-24T05:20:55.534Z,8.74
2023-10-24T05:23:25.127Z,8.78
2023-10-24T05:25:53.400Z,8.81
2023-10-24T05:28:21.720Z,8.86
2023-10-24T05:30:50.081Z,8.80
2023-10-24T05:33:18.340Z,8.82
2023-10-24T05:35:50.254Z,8.86
2023-10-24T05:38:18.546Z,8.83
2023-10-24T05:40:48.134Z,8.82
2023-10-24T05:43:16.588Z,8.80
2023-10-24T05:45:44.999Z,8.81
2023-10-24T05:48:13.297Z,8.73
2023-10-24T05:50:41.510Z,8.79
2023-10-24T05:53:09.732Z,8.83
2023-10-24T05:55:37.982Z,8.90
2023-10-24T05:58:07.549Z,8.94
2023-10-24T06:00:35.771Z,8.92
2023-10-24T06:03:04.077Z,8.81
2023-10-24T06:05:32.370Z,8.78
2023-10-24T06:08:00.861Z,8.90
2023-10-24T06:10:29.104Z,8.83
2023-10-24T06:12:57.294Z,8.88
2023-10-24T06:15:26.829Z,8.86
2023-10-24T06:17:56.486Z,8.90
2023-10-24T06:20:24.819Z,8.90
2023-10-24T06:22:53.185Z,8.93
2023-10-24T06:25:21.822Z,8.95
2023-10-24T06:27:50.121Z,8.91
2023-10-24T06:30:18.776Z,8.92
2023-10-24T06:32:48.355Z,8.93
2023-10-24T06:35:17.015Z,9.01
2023-10-24T06:37:45.338Z,9.04
2023-10-24T06:40:13.770Z,9.02
2023-10-24T06:42:42.089Z,8.99
2023-10-24T06:45:12.052Z,9.09
2023-10-24T06:47:41.972Z,9.10
2023-10-24T06:50:12.022Z,9.12
2023-10-24T06:52:43.259Z,9.06
2023-10-24T06:55:11.755Z,9.12
2023-10-24T06:57:40.007Z,9.06
2023-10-24T07:00:10.015Z,9.09
2023-10-24T07:02:38.716Z,9.10
2023-10-24T07:05:07.434Z,9.13
2023-10-24T07:07:37.195Z,9.18
2023-10-24T07:10:05.975Z,9.28
2023-10-24T07:12:34.192Z,9.28
2023-10-24T07:15:04.706Z,9.25
2023-10-24T07:17:33.058Z,9.37
2023-10-24T07:20:01.520Z,9.42
2023-10-24T07:22:30.976Z,9.33
2023-10-24T07:25:00.567Z,9.37
2023-10-24T07:27:28.962Z,9.56
2023-10-24T07:29:57.172Z,9.52
2023-10-24T07:32:25.466Z,9.55
2023-10-24T07:34:57.439Z,9.65
2023-10-24T07:37:26.125Z,9.59
2023-10-24T07:39:55.336Z,9.68
2023-10-24T07:42:24.963Z,9.70
2023-10-24T07:44:54.639Z,9.72
2023-10-24T07:47:23.084Z,9.93
2023-10-24T07:49:52.039Z,9.85
2023-10-24T07:52:20.561Z,9.92
2023-10-24T07:54:48.829Z,9.95
2023-10-24T07:57:17.118Z,9.90
2023-10-24T07:59:46.712Z,9.88
2023-10-24T08:02:14.997Z,9.88
2023-10-24T08:04:43.349Z,9.93
2023-10-24T08:07:11.771Z,9.98
2023-10-24T08:09:40.298Z,9.96
2023-10-24T08:12:09.389Z,9.98
2023-10-24T08:14:37.652Z,10.10
2023-10-24T08:17:07.458Z,10.08
2023-10-24T08:19:35.881Z,10.02
2023-10-24T08:22:04.252Z,10.23
2023-10-24T08:24:32.518Z,10.12
2023-10-24T08:27:11.189Z,10.16
2023-10-24T08:29:40.549Z,10.26
2023-10-24T08:32:14.853Z,10.27
2023-10-24T08:34:44.718Z,10.23
2023-10-24T08:37:13.233Z,10.35
2023-10-24T08:39:41.699Z,10.44
2023-10-24T08:42:12.284Z,10.27
2023-10-24T08:44:42.701Z,10.34
2023-10-24T08:47:13.966Z,10.34
2023-10-24T08:49:43.057Z,10.32
2023-10-24T08:52:29.268Z,10.41
2023-10-24T08:55:00.769Z,10.32
2023-10-24T08:57:32.062Z,10.27
2023-10-24T09:00:02.252Z,10.32
2023-10-24T09:02:32.824Z,10.34
2023-10-24T09:05:02.608Z,10.38
2023-10-24T09:07:31.243Z,10.53
2023-10-24T09:09:59.474Z,10.58
2023-10-24T09:12:31.100Z,10.53
2023-10-24T09:15:00.327Z,10.61
2023-10-24T09:17:32.236Z,10.64
2023-10-24T09:20:04.703Z,10.58
2023-10-24T09:22:33.138Z,10.49
2023-10-24T09:25:03.051Z,10.36
2023-10-24T09:27:31.411Z,10.35
2023-10-24T09:30:16.191Z,10.40
2023-10-24T09:32:47.209Z,10.52
2023-10-24T09:35:16.900Z,10.60
2023-10-24T09:37:47.871Z,10.67
2023-10-24T09:40:16.247Z,10.51
2023-10-24T09:42:44.804Z,10.59
2023-10-24T09:45:14.175Z,10.81
2023-10-24T09:47:45.088Z,10.66
2023-10-24T09:50:15.805Z,10.70
2023-10-24T09:52:46.290Z,10.70
2023-10-24T09:55:15.252Z,10.73
2023-10-24T09:57:45.419Z,10.78
2023-10-24T10:00:16.362Z,10.79
2023-10-24T10:02:47.681Z,10.94
2023-10-24T10:05:17.028Z,11.06
2023-10-24T10:07:51.195Z,11.00
2023-10-24T10:10:21.198Z,11.03
2023-10-24T10:12:50.852Z,11.12
2023-10-24T10:15:40.291Z,11.20
2023-10-24T10:18:18.769Z,11.16
2023-10-24T10:20:58.284Z,11.27
2023-10-24T10:23:53.551Z,11.31
2023-10-24T10:26:26.157Z,11.44
2023-10-24T10:29:22.811Z,11.64
2023-10-24T10:32:38.566Z,11.59
2023-10-24T10:34:57.251Z,11.62
2023-10-24T10:37:31.714Z,11.58
2023-10-24T10:40:29.116Z,11.79
2023-10-24T10:42:57.805Z,11.81
2023-10-24T10:45:27.744Z,11.78
2023-10-24T10:47:58.871Z,11.81
2023-10-24T10:50:30.004Z,12.10
2023-10-24T10:53:03.493Z,12.02
2023-10-24T10:56:05.740Z,11.94
2023-10-24T10:58:48.893Z,12.15
2023-10-24T11:01:29.397Z,12.01
2023-10-24T11:03:59.127Z,12.26
2023-10-24T11:06:29.127Z,12.23
2023-10-24T11:09:11.684Z,12.48
2023-10-24T11:11:41.549Z,12.37
2023-10-24T11:14:17.710Z,12.28
2023-10-24T11:16:47.848Z,12.24
2023-10-24T11:19:20.438Z,12.18
2023-10-24T11:21:49.447Z,12.20
2023-10-24T11:24:21.122Z,12.20
2023-10-24T11:26:50.978Z,12.77
2023-10-24T11:29:19.227Z,12.54
2023-10-24T11:31:50.366Z,12.58
2023-10-24T11:34:20.477Z,12.69
2023-10-24T11:36:48.856Z,12.83
2023-10-24T11:39:17.256Z,12.64
2023-10-24T11:41:46.224Z,12.68
2023-10-24T11:44:17.224Z,12.85
2023-10-24T11:46:46.689Z,12.83
2023-10-24T11:49:15.057Z,12.86
2023-10-24T11:51:43.332Z,13.13
2023-10-24T11:54:13.646Z,13.03
2023-10-24T11:56:42.547Z,12.63
2023-10-24T11:59:12.603Z,12.80
2023-10-24T12:01:44.622Z,12.69
2023-10-24T12:04:14.516Z,12.64
2023-10-24T12:06:42.834Z,12.66
2023-10-24T12:09:11.191Z,12.56
2023-10-24T12:11:39.436Z,12.66
2023-10-24T12:14:07.762Z,12.66
2023-10-24T12:16:51.608Z,12.58
2023-10-24T12:19:26.359Z,12.55
2023-10-24T12:21:55.822Z,12.49
2023-10-24T12:24:24.348Z,12.68
2023-10-24T12:26:52.507Z,12.41
2023-10-24T12:29:20.681Z,12.57
2023-10-24T12:31:49.096Z,12.47
2023-10-24T12:34:17.400Z,12.60
2023-10-24T12:36:48.201Z,12.57
2023-10-24T12:39:18.550Z,12.41
2023-10-24T12:41:46.880Z,12.43
2023-10-24T12:44:15.195Z,12.55
2023-10-24T12:46:43.719Z,12.75
2023-10-24T12:49:12.128Z,12.61
2023-10-24T12:51:41.206Z,12.91
2023-10-24T12:54:10.820Z,12.94
2023-10-24T12:56:39.190Z,12.85
2023-10-24T12:59:07.474Z,12.69
2023-10-24T13:01:36.159Z,12.73
2023-10-24T13:04:05.018Z,12.75
2023-10-24T13:06:34.549Z,12.79
2023-10-24T13:09:03.427Z,12.91
2023-10-24T13:11:33.130Z,12.91
2023-10-24T13:14:01.487Z,12.99
2023-10-24T13:16:29.864Z,12.81
2023-10-24T13:19:17.874Z,12.67
2023-10-24T13:21:46.249Z,12.80
2023-10-24T13:24:14.523Z,12.67
2023-10-24T13:26:44.208Z,12.72
2023-10-24T13:29:12.723Z,12.74
2023-10-24T13:31:41.918Z,12.73
2023-10-24T13:36:41.921Z,13.00
2023-10-24T13:39:11.761Z,12.77
2023-10-24T13:41:39.982Z,12.67
2023-10-24T13:44:09.732Z,12.87
2023-10-24T13:46:38.201Z,12.73
2023-10-24T13:49:07.092Z,12.81
2023-10-24T13:51:36.438Z,12.96
2023-10-24T13:54:05.861Z,12.90
2023-10-24T13:56:34.406Z,12.83
2023-10-24T13:59:02.763Z,12.60
2023-10-24T14:01:33.160Z,12.71
2023-10-24T14:04:02.692Z,12.65
2023-10-24T14:06:31.084Z,12.52
2023-10-24T14:08:59.457Z,12.68
2023-10-24T14:11:27.881Z,12.42
2023-10-24T14:13:56.147Z,12.50
2023-10-24T14:16:24.473Z,12.28
2023-10-24T14:18:54.053Z,12.23
2023-10-24T14:21:22.237Z,12.34
2023-10-24T14:23:50.532Z,12.23
2023-10-24T14:26:19.338Z,12.27
2023-10-24T14:28:47.595Z,12.22
2023-10-24T14:31:15.899Z,12.33
2023-10-24T14:33:44.283Z,12.26
2023-10-24T14:36:13.888Z,12.26
2023-10-24T14:38:42.106Z,12.26
2023-10-24T14:41:10.403Z,12.22
2023-10-24T14:43:38.625Z,12.21
2023-10-24T14:46:06.977Z,12.34
2023-10-24T14:48:37.968Z,12.40
2023-10-24T14:51:06.656Z,12.18
2023-10-24T14:53:36.430Z,12.19
2023-10-24T14:56:05.490Z,12.17
2023-10-24T14:58:34.251Z,12.26
2023-10-24T15:01:03.743Z,12.20
2023-10-24T15:03:32.073Z,12.19
2023-10-24T15:06:00.405Z,12.21
2023-10-24T15:08:28.634Z,12.22
2023-10-24T15:10:58.216Z,12.20
2023-10-24T15:13:26.810Z,12.15
2023-10-24T15:15:55.100Z,12.15
2023-10-24T15:18:23.392Z,12.19
2023-10-24T15:20:51.707Z,12.23
2023-10-24T15:23:20.085Z,12.18
2023-10-24T15:25:48.379Z,12.10
2023-10-24T15:28:17.973Z,12.11
2023-10-24T15:30:46.317Z,12.09
2023-10-24T15:33:14.869Z,12.05
2023-10-24T15:35:44.323Z,12.07
2023-10-24T15:38:12.608Z,12.11
2023-10-24T15:40:41.140Z,12.15
2023-10-24T15:43:09.486Z,12.16
2023-10-24T15:45:39.170Z,12.12
2023-10-24T15:48:16.953Z,12.19
2023-10-24T15:50:45.554Z,12.23
2023-10-24T15:53:13.840Z,12.18
2023-10-24T15:55:42.187Z,12.12
2023-10-24T15:58:10.390Z,12.00
2023-10-24T16:00:40.481Z,12.03
2023-10-24T16:03:08.840Z,11.99
2023-10-24T16:05:37.117Z,12.02
2023-10-24T16:08:05.816Z,12.09
2023-10-24T16:10:34.333Z,12.10
2023-10-24T16:13:02.712Z,12.03
2023-10-24T16:15:30.939Z,12.00
2023-10-24T16:18:00.805Z,11.94
2023-10-24T16:20:29.223Z,11.86
2023-10-24T16:22:57.608Z,11.86
2023-10-24T16:25:25.842Z,11.90
2023-10-24T16:27:56.288Z,11.83
2023-10-24T16:30:24.542Z,11.88
2023-10-24T16:32:54.509Z,11.97
2023-10-24T16:35:24.274Z,12.09
2023-10-24T16:37:52.571Z,11.94
2023-10-24T16:40:20.842Z,11.99
2023-10-24T16:42:49.186Z,11.94
2023-10-24T16:45:18.943Z,11.90
2023-10-24T16:47:47.803Z,11.84
2023-10-24T16:50:17.182Z,11.78
2023-10-24T16:52:46.935Z,11.83
2023-10-24T16:55:15.397Z,11.85
2023-10-24T16:57:44.027Z,11.85
2023-10-24T17:00:15.744Z,11.67
2023-10-24T17:02:44.355Z,11.80
2023-10-24T17:05:12.752Z,11.77
2023-10-24T17:07:43.515Z,11.74
2023-10-24T17:10:14.604Z,11.87
2023-10-24T17:12:42.913Z,11.86
2023-10-24T17:15:13.026Z,11.93
2023-10-24T17:17:41.677Z,11.84
2023-10-24T17:20:10.954Z,11.95
2023-10-24T17:22:39.216Z,11.89
2023-10-24T17:25:08.201Z,11.93
2023-10-24T17:27:38.899Z,11.93
2023-10-24T17:30:08.645Z,11.75
2023-10-24T17:32:37.771Z,11.80
2023-10-24T17:35:06.622Z,11.91
2023-10-24T17:37:34.878Z,11.84
2023-10-24T17:40:06.797Z,11.95
2023-10-24T17:42:37.341Z,11.76
2023-10-24T17:45:08.143Z,11.72
2023-10-24T17:47:36.367Z,11.53
2023-10-24T17:50:05.411Z,11.59
2023-10-24T17:52:33.677Z,11.82
2023-10-24T17:55:02.042Z,11.81
2023-10-24T17:57:30.489Z,11.69
2023-10-24T17:59:58.783Z,11.66
2023-10-24T18:02:28.809Z,11.57
2023-10-24T18:04:57.122Z,11.56
2023-10-24T18:07:28.295Z,11.59
2023-10-24T18:09:57.253Z,11.73
2023-10-24T18:12:25.530Z,11.64
2023-10-24T18:14:53.849Z,11.57
2023-10-24T18:17:22.240Z,11.61
2023-10-24T18:19:52.385Z,11.55
2023-10-24T18:22:20.645Z,11.45
2023-10-24T18:24:48.892Z,11.54
2023-10-24T18:27:17.111Z,11.45
2023-10-24T18:29:47.962Z,11.60
2023-10-24T18:32:16.192Z,11.52
2023-10-24T18:34:45.857Z,11.53
2023-10-24T18:37:17.452Z,11.42
2023-10-24T18:39:45.661Z,11.37
2023-10-24T18:42:14.373Z,11.37
2023-10-24T18:44:43.229Z,11.45
2023-10-24T18:47:11.682Z,11.36
2023-10-24T18:49:40.049Z,11.27
2023-10-24T18:52:08.889Z,11.35
2023-10-24T18:54:38.811Z,11.40
2023-10-24T18:57:07.048Z,11.35
2023-10-24T18:59:35.761Z,11.42
2023-10-24T19:02:04.753Z,11.36
2023-10-24T19:04:36.302Z,11.32
2023-10-24T19:10:24.917Z,11.46
2023-10-24T19:12:53.805Z,11.28
2023-10-24T19:15:22.969Z,11.30
2023-10-24T19:17:51.866Z,11.36
2023-10-24T19:20:20.490Z,11.46
2023-10-24T19:22:49.516Z,11.36
2023-10-24T19:25:18.183Z,11.46
2023-10-24T19:27:48.552Z,11.34
2023-10-24T19:30:17.896Z,11.50
2023-10-24T19:32:46.673Z,11.44
2023-10-24T19:35:15.837Z,11.39
2023-10-24T19:37:47.835Z,11.29
2023-10-24T19:40:17.096Z,11.27
2023-10-24T19:42:46.734Z,11.36
2023-10-24T19:45:17.740Z,11.20
2023-10-24T19:47:51.051Z,11.60
2023-10-24T19:50:20.069Z,11.29
2023-10-24T19:52:48.975Z,11.25
2023-10-24T19:57:51.088Z,11.28
2023-10-24T20:00:21.860Z,11.39
2023-10-24T20:02:51.655Z,11.50
2023-10-24T20:05:20.692Z,11.44
2023-10-24T20:07:54.115Z,11.40
2023-10-24T20:12:31.336Z,11.27
2023-10-24T20:13:18.822Z,11.16
2023-10-24T20:15:49.159Z,11.48
2023-10-24T20:18:17.920Z,11.17
2023-10-24T20:20:48.539Z,11.28
2023-10-24T20:23:18.486Z,11.20
2023-10-24T20:25:47.400Z,11.24
2023-10-24T20:28:15.610Z,11.38
2023-10-24T20:30:43.973Z,11.28
2023-10-24T20:33:13.867Z,11.19
2023-10-24T20:35:42.379Z,11.16
2023-10-24T20:38:10.610Z,11.15
2023-10-24T20:40:39.377Z,11.15
2023-10-24T20:43:07.606Z,11.21
2023-10-24T20:45:36.149Z,11.27
2023-10-24T20:48:04.445Z,11.37
2023-10-24T20:50:33.990Z,11.16
2023-10-24T20:53:02.308Z,11.14
2023-10-24T20:55:30.512Z,11.42
2023-10-24T20:57:58.880Z,11.14
2023-10-24T21:00:27.394Z,11.10
2023-10-24T21:02:56.082Z,11.07
2023-10-24T21:05:24.308Z,11.07
2023-10-24T21:07:53.829Z,11.03
2023-10-24T21:10:22.116Z,11.11
2023-10-24T21:12:51.650Z,11.17
2023-10-24T21:15:20.061Z,11.31
2023-10-24T21:17:48.295Z,11.20
2023-10-24T21:20:16.727Z,11.24
2023-10-24T21:22:45.357Z,11.36
2023-10-24T21:25:14.958Z,11.51
2023-10-24T21:27:43.314Z,11.40
2023-10-24T21:30:11.937Z,11.60
2023-10-24T21:32:40.462Z,11.69
2023-10-24T21:35:09.655Z,11.81
2023-10-24T21:37:37.844Z,11.88
2023-10-24T21:40:11.856Z,11.64
2023-10-24T21:42:42.655Z,11.54
2023-10-24T21:45:11.690Z,11.39
2023-10-24T21:47:39.931Z,11.91
2023-10-24T21:50:08.881Z,11.83
2023-10-24T21:52:37.152Z,11.81
2023-10-24T21:55:07.970Z,11.92
2023-10-24T21:57:36.286Z,11.66
2023-10-24T22:00:09.792Z,11.59
2023-10-24T22:02:41.175Z,11.58
2023-10-24T22:05:09.809Z,11.72
2023-10-24T22:07:38.050Z,11.87
2023-10-24T22:10:07.722Z,11.52
2023-10-24T22:12:36.071Z,11.58
2023-10-24T22:15:06.320Z,11.59
2023-10-24T22:17:34.624Z,11.64
2023-10-24T22:20:02.840Z,11.70
2023-10-24T22:22:31.076Z,11.70
2023-10-24T22:24:59.478Z,11.61
2023-10-24T22:27:27.695Z,11.55
2023-10-24T22:29:55.947Z,11.51
2023-10-24T22:32:25.506Z,11.67
2023-10-24T22:34:53.828Z,11.67
2023-10-24T22:37:22.322Z,11.62
2023-10-24T22:39:50.562Z,11.70
2023-10-24T22:42:18.873Z,11.56
2023-10-24T22:44:47.163Z,11.53
2023-10-24T22:47:15.399Z,11.67
2023-10-24T22:49:45.044Z,11.61
2023-10-24T22:52:13.319Z,11.63
2023-10-24T22:54:41.564Z,11.62
2023-10-24T22:57:09.872Z,11.61
2023-10-24T22:59:38.066Z,11.63
2023-10-24T23:02:06.361Z,11.64
2023-10-24T23:04:35.268Z,11.65
2023-10-24T23:07:05.179Z,11.55
2023-10-24T23:09:33.748Z,11.55
2023-10-24T23:12:03.590Z,11.66
2023-10-24T23:14:33.652Z,11.68
2023-10-24T23:17:01.861Z,11.61
2023-10-24T23:19:30.078Z,11.69
2023-10-24T23:21:58.326Z,11.60
2023-10-24T23:24:27.920Z,11.67
2023-10-24T23:26:56.128Z,11.78
2023-10-24T23:29:24.509Z,11.70
2023-10-24T23:31:52.804Z,11.67
2023-10-24T23:34:21.019Z,11.66
2023-10-24T23:36:49.258Z,11.83
2023-10-24T23:39:17.917Z,11.78
2023-10-24T23:41:47.547Z,11.75
2023-10-24T23:44:15.884Z,11.82
2023-10-24T23:46:44.180Z,11.84
2023-10-24T23:49:12.436Z,11.85
2023-10-24T23:51:40.709Z,11.80
2023-10-24T23:54:11.394Z,11.87
2023-10-24T23:56:41.615Z,11.95
2023-10-24T23:59:11.152Z,11.93
